createdAt,value
2023-01-09T03:46:27.223Z,7.77
2023-01-09T03:49:30.007Z,7.77
2023-01-09T03:52:32.231Z,7.18
2023-01-09T03:55:34.663Z,7.18
2023-01-09T03:58:36.855Z,7.24
2023-01-09T04:01:39.396Z,7.21
2023-01-09T04:04:41.961Z,7.12
2023-01-09T04:07:44.071Z,7.10
2023-01-09T04:10:48.300Z,7.14
2023-01-09T04:13:50.430Z,7.29
2023-01-09T04:16:52.830Z,7.25
2023-01-09T04:19:54.952Z,7.23
2023-01-09T04:22:57.439Z,7.24
2023-01-09T04:25:59.582Z,7.33
2023-01-09T04:29:02.078Z,7.31
2023-01-09T04:32:04.589Z,7.36
2023-01-09T04:35:08.003Z,7.40
2023-01-09T04:38:10.149Z,7.44
2023-01-09T04:41:32.504Z,7.35
2023-01-09T04:44:34.719Z,7.27
2023-01-09T04:47:37.589Z,7.16
2023-01-09T04:50:39.706Z,7.14
2023-01-09T04:53:42.093Z,7.15
2023-01-09T04:56:44.288Z,7.16
2023-01-09T04:59:46.675Z,7.31
2023-01-09T05:02:48.784Z,7.25
2023-01-09T05:05:51.161Z,7.20
2023-01-09T05:08:53.445Z,7.15
2023-01-09T05:11:55.939Z,7.13
2023-01-09T05:14:58.155Z,7.24
2023-01-09T05:18:00.593Z,7.20
2023-01-09T05:21:02.936Z,7.13
2023-01-09T05:24:05.751Z,7.14
2023-01-09T05:27:08.024Z,7.31
2023-01-09T05:30:13.006Z,7.24
2023-01-09T05:33:15.960Z,7.20
2023-01-09T05:36:18.422Z,7.15
2023-01-09T05:39:20.572Z,7.18
2023-01-09T05:42:23.040Z,7.13
2023-01-09T05:45:27.093Z,7.22
2023-01-09T05:48:29.605Z,7.26
2023-01-09T05:51:31.927Z,7.20
2023-01-09T05:54:34.757Z,7.18
2023-01-09T05:57:36.951Z,7.18
2023-01-09T06:00:39.612Z,7.16
2023-01-09T06:03:42.104Z,7.22
2023-01-09T06:06:44.260Z,7.37
2023-01-09T06:09:46.666Z,7.30
2023-01-09T06:12:51.625Z,7.25
2023-01-09T06:15:54.084Z,7.20
2023-01-09T06:18:56.524Z,7.19
2023-01-09T06:21:58.963Z,7.18
2023-01-09T06:25:01.066Z,7.19
2023-01-09T06:28:03.681Z,7.25
2023-01-09T06:31:06.079Z,7.26
2023-01-09T06:34:08.785Z,7.28
2023-01-09T06:37:10.973Z,7.28
2023-01-09T06:40:14.882Z,7.26
2023-01-09T06:43:17.048Z,7.38
2023-01-09T06:46:19.626Z,7.32
2023-01-09T06:49:23.652Z,7.30
2023-01-09T06:52:26.096Z,7.19
2023-01-09T06:55:28.399Z,7.16
2023-01-09T06:58:30.980Z,7.16
2023-01-09T07:01:33.246Z,7.21
2023-01-09T07:04:35.871Z,7.22
2023-01-09T07:07:39.827Z,7.15
2023-01-09T07:10:43.429Z,7.20
2023-01-09T07:13:45.617Z,7.16
2023-01-09T07:16:48.097Z,7.05
2023-01-09T07:19:50.311Z,7.14
2023-01-09T07:22:53.951Z,7.05
2023-01-09T07:25:56.227Z,7.00
2023-01-09T07:28:58.715Z,6.96
2023-01-09T07:32:00.843Z,6.99
2023-01-09T07:35:04.011Z,7.00
2023-01-09T07:38:06.325Z,7.08
2023-01-09T07:41:08.891Z,7.19
2023-01-09T07:44:11.495Z,7.33
2023-01-09T07:47:13.958Z,7.41
2023-01-09T07:50:16.280Z,7.49
2023-01-09T07:53:18.715Z,7.62
2023-01-09T07:56:21.030Z,7.68
2023-01-09T07:59:23.639Z,7.60
2023-01-09T08:02:27.175Z,7.62
2023-01-09T08:05:29.572Z,7.43
2023-01-09T08:08:31.684Z,7.38
2023-01-09T08:11:34.112Z,7.41
2023-01-09T08:14:36.236Z,7.47
2023-01-09T08:17:41.045Z,7.35
2023-01-09T08:20:43.212Z,7.00
2023-01-09T08:23:46.182Z,6.94
2023-01-09T08:26:48.316Z,6.77
2023-01-09T08:29:50.754Z,6.64
2023-01-09T08:32:54.426Z,6.61
2023-01-09T08:35:56.996Z,6.29
2023-01-09T08:38:59.236Z,6.10
2023-01-09T08:42:20.624Z,6.07
2023-01-09T08:45:41.385Z,6.07
2023-01-09T08:48:43.838Z,6.13
2023-01-09T08:51:46.394Z,6.06
2023-01-09T08:54:48.974Z,5.96
2023-01-09T08:57:52.664Z,5.98
2023-01-09T09:00:55.070Z,5.82
2023-01-09T09:03:57.223Z,5.71
2023-01-09T09:06:59.622Z,5.84
2023-01-09T09:10:02.129Z,5.80
2023-01-09T09:13:05.276Z,5.75
2023-01-09T09:16:07.689Z,5.77
2023-01-09T09:19:10.194Z,5.59
2023-01-09T09:22:12.433Z,5.56
2023-01-09T09:25:15.933Z,5.59
2023-01-09T09:28:18.187Z,5.67
2023-01-09T09:31:20.656Z,5.77
2023-01-09T09:34:23.364Z,5.71
2023-01-09T09:37:25.942Z,5.76
2023-01-09T09:40:47.184Z,5.64
2023-01-09T09:44:27.855Z,5.72
2023-01-09T09:47:56.335Z,5.59
2023-01-09T09:51:13.795Z,5.48
2023-01-09T09:54:21.548Z,5.52
2023-01-09T09:57:33.068Z,5.51
2023-01-09T10:00:35.499Z,5.46
2023-01-09T10:03:52.252Z,5.47
2023-01-09T10:07:09.378Z,5.41
2023-01-09T10:10:37.000Z,5.42
2023-01-09T10:13:57.914Z,5.48
2023-01-09T10:17:12.931Z,5.34
2023-01-09T10:20:39.061Z,5.31
2023-01-09T10:24:01.707Z,5.30
2023-01-09T10:27:33.421Z,5.32
2023-01-09T10:30:50.586Z,5.43
2023-01-09T10:34:08.764Z,5.32
2023-01-09T10:37:22.980Z,5.28
2023-01-09T10:40:50.978Z,5.28
2023-01-09T10:43:57.230Z,5.24
2023-01-09T10:47:01.995Z,5.26
2023-01-09T10:50:26.944Z,5.29
2023-01-09T10:53:35.621Z,5.25
2023-01-09T10:56:42.134Z,5.26
2023-01-09T10:59:44.378Z,5.38
2023-01-09T11:02:47.258Z,5.35
2023-01-09T11:05:54.711Z,5.30
2023-01-09T11:09:00.237Z,5.36
2023-01-09T11:12:26.424Z,5.65
2023-01-09T11:15:29.243Z,5.47
2023-01-09T11:18:32.572Z,5.41
2023-01-09T11:21:37.991Z,5.48
2023-01-09T11:24:40.223Z,5.47
2023-01-09T11:27:42.705Z,5.43
2023-01-09T11:31:02.538Z,5.46
2023-01-09T11:34:07.421Z,5.40
2023-01-09T11:37:14.006Z,5.50
2023-01-09T11:40:20.187Z,5.51
2023-01-09T11:43:35.078Z,5.43
2023-01-09T11:46:41.791Z,5.39
2023-01-09T11:49:46.141Z,5.47
2023-01-09T11:53:13.520Z,5.55
2023-01-09T11:56:17.215Z,5.58
2023-01-09T11:59:23.103Z,5.68
2023-01-09T12:02:45.407Z,5.76
2023-01-09T12:06:03.667Z,5.84
2023-01-09T12:09:07.928Z,5.81
2023-01-09T12:12:43.291Z,5.78
2023-01-09T12:16:18.137Z,5.83
2023-01-09T12:19:53.514Z,6.03
2023-01-09T12:23:11.952Z,5.98
2023-01-09T12:26:19.476Z,6.12
2023-01-09T12:29:43.063Z,5.96
2023-01-09T12:33:35.258Z,5.91
2023-01-09T12:36:40.261Z,5.89
2023-01-09T12:40:17.083Z,5.85
2023-01-09T12:43:34.071Z,5.84
2023-01-09T12:46:41.697Z,6.13
2023-01-09T12:49:50.941Z,6.19
2023-01-09T12:53:05.698Z,6.22
2023-01-09T12:56:15.168Z,6.31
2023-01-09T12:59:40.092Z,6.20
2023-01-09T13:02:48.131Z,6.05
2023-01-09T13:05:53.348Z,6.00
2023-01-09T13:09:10.771Z,6.07
2023-01-09T13:12:21.912Z,6.26
2023-01-09T13:15:41.367Z,6.41
2023-01-09T13:18:52.124Z,6.45
2023-01-09T13:21:58.440Z,6.60
2023-01-09T13:25:26.040Z,6.62
2023-01-09T13:28:39.636Z,6.59
2023-01-09T13:32:15.378Z,6.55
2023-01-09T13:35:17.522Z,6.54
2023-01-09T13:38:23.609Z,6.62
2023-01-09T13:41:46.253Z,6.67
2023-01-09T13:44:51.627Z,6.48
2023-01-09T13:48:17.750Z,6.50
2023-01-09T13:51:42.321Z,6.59
2023-01-09T13:54:55.232Z,6.67
2023-01-09T13:58:08.113Z,6.62
2023-01-09T14:01:39.883Z,6.59
2023-01-09T14:04:46.145Z,6.70
2023-01-09T14:07:51.297Z,6.74
2023-01-09T14:11:05.205Z,6.73
2023-01-09T14:14:21.165Z,6.76
2023-01-09T14:17:31.584Z,6.65
2023-01-09T14:20:39.788Z,6.59
2023-01-09T14:24:06.161Z,6.67
2023-01-09T14:27:47.537Z,6.71
2023-01-09T14:30:52.882Z,6.80
2023-01-09T14:34:39.818Z,6.62
2023-01-09T14:37:43.502Z,6.65
2023-01-09T14:40:59.821Z,6.71
2023-01-09T14:44:06.589Z,6.70
2023-01-09T14:47:18.057Z,6.65
2023-01-09T14:51:00.009Z,6.68
2023-01-09T14:54:14.505Z,6.67
2023-01-09T14:57:28.920Z,6.71
2023-01-09T15:00:31.148Z,6.74
2023-01-09T15:03:49.889Z,6.75
2023-01-09T15:06:52.203Z,6.74
2023-01-09T15:09:55.164Z,6.72
2023-01-09T15:13:00.523Z,6.72
2023-01-09T15:16:06.069Z,6.73
2023-01-09T15:19:08.954Z,6.72
2023-01-09T15:22:29.760Z,6.61
2023-01-09T15:25:39.710Z,6.69
2023-01-09T15:28:43.925Z,6.68
2023-01-09T15:31:56.022Z,6.60
2023-01-09T15:35:02.207Z,6.66
2023-01-09T15:38:04.381Z,6.70
2023-01-09T15:41:09.743Z,6.72
2023-01-09T15:44:17.793Z,6.71
2023-01-09T15:47:27.568Z,6.73
2023-01-09T15:50:29.945Z,6.75
2023-01-09T15:53:33.011Z,6.70
2023-01-09T15:56:35.413Z,6.67
2023-01-09T15:59:38.501Z,6.70
2023-01-09T16:03:03.264Z,6.69
2023-01-09T16:06:20.502Z,6.67
2023-01-09T16:09:30.215Z,6.57
2023-01-09T16:12:33.281Z,6.46
2023-01-09T16:15:35.461Z,6.41
